Time;durP1;ratioP1;P1;durP2;ratioP2;P2;SDS_P1;SDS_P2;PMS_P1;PMS_P2;Temp;Humidity;BMP_temperature;BMP_pressure;BME280_temperature;BME280_humidity;BME280_pressure;Samples;Min_cycle;Max_cycle;Signal;HPM_P1;HPM_P2
2022/10/31 00:00:27;;;;;;;8.70;3.70;;;;;;;11.04;100.00;102103.75;5046365;28;20028;-69
2022/10/31 00:02:52;;;;;;;5.03;3.00;;;;;;;11.03;100.00;102110.81;5045381;28;20087;-71
2022/10/31 00:05:18;;;;;;;5.22;2.97;;;;;;;11.04;100.00;102101.13;5046212;28;20031;-66
2022/10/31 00:07:43;;;;;;;6.35;3.40;;;;;;;11.05;100.00;102101.09;5046042;28;20027;-70
2022/10/31 00:10:09;;;;;;;4.65;3.20;;;;;;;11.03;100.00;102102.91;5048621;28;20025;-72
2022/10/31 00:12:34;;;;;;;6.38;3.60;;;;;;;11.02;100.00;102108.22;5049355;28;20427;-69
2022/10/31 00:14:59;;;;;;;7.95;3.58;;;;;;;10.99;100.00;102107.34;5051225;28;20427;-71
2022/10/31 00:17:24;;;;;;;7.28;3.33;;;;;;;10.97;100.00;102105.63;5050192;28;20017;-72
2022/10/31 00:19:50;;;;;;;4.70;3.13;;;;;;;10.94;100.00;102108.31;5032936;28;20138;-70
2022/10/31 00:22:15;;;;;;;6.10;3.28;;;;;;;10.89;100.00;102108.38;5050357;28;20112;-70
2022/10/31 00:24:40;;;;;;;6.63;3.17;;;;;;;10.87;100.00;102110.19;5032688;28;20116;-72
2022/10/31 00:27:06;;;;;;;5.70;3.22;;;;;;;10.83;100.00;102113.75;5049399;28;20363;-65
2022/10/31 00:29:31;;;;;;;6.20;3.65;;;;;;;10.79;100.00;102112.06;5033096;28;20057;-69
2022/10/31 00:31:56;;;;;;;6.05;3.42;;;;;;;10.76;100.00;102114.72;5049152;28;20029;-72
2022/10/31 00:34:22;;;;;;;5.85;2.92;;;;;;;10.70;100.00;102116.56;5049887;28;20029;-66
2022/10/31 00:36:47;;;;;;;9.18;3.58;;;;;;;10.67;100.00;102118.38;5049807;28;20602;-71
2022/10/31 00:39:12;;;;;;;5.50;2.88;;;;;;;10.68;100.00;102112.19;5050125;28;20490;-69
2022/10/31 00:41:38;;;;;;;6.45;3.10;;;;;;;10.70;100.00;102120.97;5049937;28;20025;-68
2022/10/31 00:44:03;;;;;;;8.02;3.20;;;;;;;10.70;100.00;102126.22;5050051;28;20102;-66
2022/10/31 00:46:29;;;;;;;5.05;3.33;;;;;;;10.66;100.00;102117.50;5050654;28;20021;-71
2022/10/31 00:48:54;;;;;;;6.90;3.20;;;;;;;10.65;100.00;102122.81;5049979;28;20179;-64
2022/10/31 00:51:19;;;;;;;9.80;3.25;;;;;;;10.64;100.00;102118.41;5049862;28;20398;-69
2022/10/31 00:53:44;;;;;;;10.20;3.55;;;;;;;10.62;100.00;102131.59;5050006;28;20478;-68
2022/10/31 00:56:10;;;;;;;5.72;3.63;;;;;;;10.60;100.00;102130.78;5047854;28;20483;-70
2022/10/31 00:58:35;;;;;;;6.82;3.70;;;;;;;10.56;100.00;102126.41;5049755;28;20483;-67
2022/10/31 01:01:00;;;;;;;4.25;3.28;;;;;;;10.53;100.00;102122.06;5049196;28;20151;-69
2022/10/31 01:03:28;;;;;;;7.50;3.35;;;;;;;10.49;100.00;102117.72;5049422;28;20110;-69
2022/10/31 01:06:08;;;;;;;4.45;3.20;;;;;;;10.50;100.00;102116.81;5049591;28;20052;-69
2022/10/31 01:08:34;;;;;;;7.32;3.28;;;;;;;10.51;100.00;102101.91;5050239;28;20025;-69
2022/10/31 01:11:02;;;;;;;11.65;4.38;;;;;;;10.52;100.00;102095.72;5049618;28;20066;-69
2022/10/31 01:13:27;;;;;;;6.45;4.20;;;;;;;10.52;100.00;102087.81;5049676;28;20052;-69
2022/10/31 01:15:56;;;;;;;5.97;4.00;;;;;;;10.49;100.00;102105.44;5048999;28;21153;-71
2022/10/31 01:18:21;;;;;;;7.30;4.15;;;;;;;10.45;100.00;102105.47;5049407;28;20025;-71
2022/10/31 01:20:47;;;;;;;7.80;4.35;;;;;;;10.51;100.00;102112.44;5047909;28;20036;-71
2022/10/31 01:23:12;;;;;;;11.05;5.45;;;;;;;10.50;100.00;102108.91;5048349;28;20100;-69
2022/10/31 01:25:37;;;;;;;8.52;4.78;;;;;;;10.46;100.00;102102.84;5048896;28;20666;-71
2022/10/31 01:28:03;;;;;;;9.70;5.13;;;;;;;10.39;100.00;102098.50;5031358;28;20025;-70
2022/10/31 01:30:28;;;;;;;13.05;5.15;;;;;;;10.34;100.00;102089.78;5049284;28;20056;-69
2022/10/31 01:32:53;;;;;;;12.57;4.95;;;;;;;10.29;100.00;102097.72;5049039;28;20040;-71
2022/10/31 01:35:19;;;;;;;10.52;4.82;;;;;;;10.26;100.00;102097.78;5048766;28;20029;-70
2022/10/31 01:37:44;;;;;;;11.98;4.80;;;;;;;10.22;100.00;102093.44;5048822;28;20025;-69
2022/10/31 01:40:10;;;;;;;7.00;4.80;;;;;;;10.16;100.00;102094.38;5048065;28;20041;-67
2022/10/31 01:42:35;;;;;;;9.82;4.95;;;;;;;10.16;100.00;102085.59;5048041;28;20021;-71
2022/10/31 01:45:01;;;;;;;7.53;5.05;;;;;;;10.12;100.00;102087.41;5048247;28;20049;-68
2022/10/31 01:47:32;;;;;;;9.75;4.80;;;;;;;10.12;100.00;102095.31;5048425;28;20037;-66
2022/10/31 01:50:00;;;;;;;13.10;5.53;;;;;;;10.09;100.00;102090.94;5031071;28;20509;-69
2022/10/31 01:52:37;;;;;;;8.82;5.22;;;;;;;10.06;100.00;102084.84;5030735;28;20029;-71
2022/10/31 01:55:07;;;;;;;7.10;5.32;;;;;;;10.02;100.00;102080.53;5048779;28;20020;-68
2022/10/31 01:57:33;;;;;;;8.32;5.40;;;;;;;10.00;100.00;102080.53;5048297;28;20071;-69
2022/10/31 02:00:03;;;;;;;12.32;5.68;;;;;;;9.98;100.00;102082.31;5031112;28;20021;-70
2022/10/31 02:02:30;;;;;;;9.48;5.32;;;;;;;9.94;100.00;102077.97;5030637;28;20037;-70
2022/10/31 02:04:56;;;;;;;14.70;6.50;;;;;;;9.93;100.00;102078.88;5030817;28;20092;-70
2022/10/31 02:07:27;;;;;;;12.20;6.45;;;;;;;9.91;100.00;102081.50;5029621;28;20110;-68
2022/10/31 02:09:53;;;;;;;11.35;5.95;;;;;;;9.90;100.00;102078.91;5048211;28;20036;-71
2022/10/31 02:12:20;;;;;;;11.40;6.45;;;;;;;9.89;100.00;102072.75;5047529;28;20025;-69
2022/10/31 02:14:46;;;;;;;11.60;6.47;;;;;;;9.89;100.00;102079.75;5047500;28;20074;-70
2022/10/31 02:17:11;;;;;;;13.25;6.38;;;;;;;9.88;100.00;102085.94;5048593;28;20025;-70
2022/10/31 02:19:45;;;;;;;13.45;6.80;;;;;;;9.86;100.00;102083.31;5048735;28;20049;-71
2022/10/31 02:22:30;;;;;;;14.32;6.75;;;;;;;9.84;100.00;102091.22;5047219;28;20017;-71
2022/10/31 02:25:19;;;;;;;17.88;7.25;;;;;;;9.86;100.00;102085.94;5030330;28;20029;-70
2022/10/31 02:28:15;;;;;;;11.73;6.13;;;;;;;9.83;100.00;102083.34;5028778;28;20029;-68
2022/10/31 02:30:47;;;;;;;14.52;6.97;;;;;;;9.80;100.00;102084.25;5023513;28;20053;-72
2022/10/31 02:33:23;;;;;;;17.58;7.63;;;;;;;9.80;100.00;102084.25;5046923;28;20158;-69
2022/10/31 02:36:10;;;;;;;14.45;7.53;;;;;;;9.81;100.00;102077.25;5046056;28;20021;-68
2022/10/31 02:38:41;;;;;;;19.85;8.75;;;;;;;9.77;100.00;102088.66;5030161;28;20037;-70
2022/10/31 02:41:12;;;;;;;18.52;8.05;;;;;;;9.76;100.00;102081.66;5046658;28;20601;-75
2022/10/31 02:44:02;;;;;;;15.93;8.80;;;;;;;9.72;100.00;102071.16;5047905;28;20472;-71
2022/10/31 02:46:43;;;;;;;12.68;7.43;;;;;;;9.70;100.00;102077.34;5048557;28;20055;-68
2022/10/31 02:49:17;;;;;;;12.55;7.90;;;;;;;9.67;100.00;102077.38;5030420;28;20020;-70
2022/10/31 02:51:43;;;;;;;13.70;7.43;;;;;;;9.65;100.00;102074.75;5025889;28;20025;-72
2022/10/31 02:54:21;;;;;;;12.43;8.02;;;;;;;9.65;100.00;102079.13;5047314;28;20032;-70
2022/10/31 02:56:47;;;;;;;16.60;9.27;;;;;;;9.66;100.00;102073.00;5029316;28;20533;-69
2022/10/31 02:59:12;;;;;;;19.85;9.35;;;;;;;9.66;100.00;102079.13;5030252;28;20530;-70
2022/10/31 03:02:00;;;;;;;19.70;9.38;;;;;;;9.68;100.00;102073.84;5048308;28;20027;-70
2022/10/31 03:04:40;;;;;;;16.92;9.27;;;;;;;9.69;100.00;102071.19;5048040;28;20036;-68
2022/10/31 03:07:10;;;;;;;15.35;9.18;;;;;;;9.70;100.00;102067.66;5047747;28;20087;-69
2022/10/31 03:10:17;;;;;;;25.23;12.18;;;;;;;9.71;100.00;102065.91;5048224;28;20048;-64
2022/10/31 03:12:50;;;;;;;17.80;10.38;;;;;;;9.69;100.00;102067.72;4991859;28;20051;-68
2022/10/31 03:15:31;;;;;;;21.73;10.75;;;;;;;9.68;100.00;102065.94;5047587;28;20037;-72
2022/10/31 03:17:59;;;;;;;19.55;11.15;;;;;;;9.70;100.00;102067.66;5047671;28;20601;-74
2022/10/31 03:20:30;;;;;;;18.95;11.15;;;;;;;9.71;100.00;102077.31;5030188;28;20376;-70
2022/10/31 03:22:57;;;;;;;20.65;10.90;;;;;;;9.68;100.00;102071.22;5029771;28;20352;-69
2022/10/31 03:25:22;;;;;;;22.92;11.73;;;;;;;9.66;100.00;102075.63;5028881;28;20112;-70
2022/10/31 03:27:49;;;;;;;19.95;11.77;;;;;;;9.70;100.00;102072.06;5047494;28;20152;-71
2022/10/31 03:30:15;;;;;;;26.20;14.40;;;;;;;9.72;100.00;102072.91;5029768;28;20100;-68
2022/10/31 03:32:41;;;;;;;26.52;14.68;;;;;;;9.72;100.00;102079.06;5047575;28;20186;-69
2022/10/31 03:35:08;;;;;;;26.98;14.82;;;;;;;9.74;100.00;102079.06;5029572;28;20090;-69
2022/10/31 03:37:35;;;;;;;22.33;14.80;;;;;;;9.73;100.00;102069.41;5045824;28;20029;-68
2022/10/31 03:40:02;;;;;;;26.95;15.13;;;;;;;9.72;100.00;102078.19;5029557;28;20494;-70
2022/10/31 03:42:31;;;;;;;38.42;17.10;;;;;;;9.75;100.00;102086.03;5027758;28;20051;-70
2022/10/31 03:45:00;;;;;;;31.90;17.50;;;;;;;9.73;100.00;102085.22;5030928;28;20024;-71
2022/10/31 03:47:26;;;;;;;27.33;16.50;;;;;;;9.78;100.00;102079.91;5050659;28;20286;-64
2022/10/31 03:49:51;;;;;;;40.35;18.85;;;;;;;9.82;100.00;102079.81;5051492;28;20025;-69
2022/10/31 03:52:29;;;;;;;41.63;20.13;;;;;;;9.89;100.00;102071.88;5033532;28;20368;-70
2022/10/31 03:54:58;;;;;;;37.25;20.23;;;;;;;9.91;100.00;102072.72;5051744;28;20086;-70
2022/10/31 03:57:54;;;;;;;37.90;19.90;;;;;;;9.96;100.00;102076.16;5050295;28;20471;-69
2022/10/31 04:00:19;;;;;;;38.92;19.90;;;;;;;9.98;100.00;102071.78;5051832;28;20025;-68
2022/10/31 04:03:01;;;;;;;36.97;19.23;;;;;;;9.97;100.00;102064.78;5033089;28;20460;-67
2022/10/31 04:05:27;;;;;;;34.45;19.45;;;;;;;9.94;100.00;102072.69;5033014;28;20094;-70
2022/10/31 04:07:54;;;;;;;38.05;21.40;;;;;;;9.96;100.00;102074.41;5033333;28;20442;-71
2022/10/31 04:10:21;;;;;;;41.95;19.98;;;;;;;9.94;100.00;102080.59;5032704;28;20127;-69
2022/10/31 04:12:51;;;;;;;36.42;17.80;;;;;;;9.89;100.00;102083.28;5051091;28;20033;-68
2022/10/31 04:15:17;;;;;;;39.45;21.13;;;;;;;9.88;100.00;102071.00;5033313;28;20119;-64
2022/10/31 04:17:44;;;;;;;42.97;21.70;;;;;;;9.90;100.00;102073.63;5044904;28;20028;-71
2022/10/31 04:20:10;;;;;;;35.50;19.75;;;;;;;9.83;100.00;102073.69;5013851;28;20357;-72
2022/10/31 04:22:35;;;;;;;30.15;18.00;;;;;;;9.78;100.00;102069.38;5012562;28;20048;-70
2022/10/31 04:25:00;;;;;;;33.22;18.63;;;;;;;9.72;100.00;102075.53;5031459;28;20133;-64
2022/10/31 04:27:25;;;;;;;34.05;18.08;;;;;;;9.69;100.00;102078.25;5030136;28;20044;-70
2022/10/31 04:29:51;;;;;;;42.92;21.70;;;;;;;9.67;100.00;102080.00;5030922;28;20029;-71
2022/10/31 04:32:16;;;;;;;33.78;18.75;;;;;;;9.63;100.00;102081.78;5030635;28;20072;-70
2022/10/31 04:34:41;;;;;;;39.03;19.92;;;;;;;9.61;100.00;102083.56;5031136;28;20025;-71
2022/10/31 04:37:07;;;;;;;36.20;18.75;;;;;;;9.64;100.00;102083.53;5012789;28;20388;-70
2022/10/31 04:39:32;;;;;;;32.45;18.35;;;;;;;9.65;100.00;102077.38;5042291;28;20375;-69
2022/10/31 04:41:57;;;;;;;37.30;18.80;;;;;;;9.66;100.00;102075.63;5050117;28;20102;-70
2022/10/31 04:44:23;;;;;;;36.28;18.02;;;;;;;9.64;100.00;102075.66;5049768;28;20075;-69
2022/10/31 04:46:48;;;;;;;36.13;19.02;;;;;;;9.63;100.00;102073.03;5050208;28;20028;-70
2022/10/31 04:49:13;;;;;;;31.10;17.45;;;;;;;9.60;100.00;102069.53;5032408;28;20032;-69
2022/10/31 04:51:39;;;;;;;27.75;17.20;;;;;;;9.57;100.00;102071.34;5032791;28;20025;-71
2022/10/31 04:54:04;;;;;;;33.72;18.88;;;;;;;9.54;100.00;102074.00;5050055;28;20043;-71
2022/10/31 04:56:30;;;;;;;32.47;17.60;;;;;;;9.51;100.00;102074.88;5049702;28;20021;-65
2022/10/31 04:58:55;;;;;;;29.45;17.33;;;;;;;9.51;100.00;102072.25;5050148;28;20415;-70
2022/10/31 05:01:20;;;;;;;34.65;18.35;;;;;;;9.50;100.00;102069.63;5049830;28;20025;-70
2022/10/31 05:03:46;;;;;;;34.92;19.13;;;;;;;9.46;100.00;102066.16;5030516;28;20035;-70
2022/10/31 05:06:11;;;;;;;36.42;21.10;;;;;;;9.44;100.00;102075.81;5049212;28;20055;-65
2022/10/31 05:08:36;;;;;;;34.90;19.02;;;;;;;9.40;100.00;102079.38;5048771;28;20079;-69
2022/10/31 05:11:03;;;;;;;33.38;18.73;;;;;;;9.37;100.00;102079.41;5048312;28;20364;-68
2022/10/31 05:13:29;;;;;;;30.35;17.40;;;;;;;9.33;100.00;102082.06;5050467;28;20460;-69
2022/10/31 05:15:54;;;;;;;28.98;17.85;;;;;;;9.32;100.00;102076.81;5046926;28;20040;-72
2022/10/31 05:18:20;;;;;;;32.45;17.67;;;;;;;9.31;100.00;102068.06;5049148;28;20387;-71
2022/10/31 05:20:45;;;;;;;26.95;16.95;;;;;;;9.31;100.00;102065.44;5049490;28;20029;-71
2022/10/31 05:23:10;;;;;;;35.33;19.10;;;;;;;9.34;100.00;102061.91;5048569;28;20028;-71
2022/10/31 05:25:36;;;;;;;38.97;21.08;;;;;;;9.41;100.00;102060.06;5048143;28;20594;-73
2022/10/31 05:28:01;;;;;;;45.97;20.55;;;;;;;9.44;100.00;102060.94;5049362;28;20029;-71
2022/10/31 05:30:29;;;;;;;37.90;20.45;;;;;;;9.45;100.00;102061.81;5048447;28;20025;-73
2022/10/31 05:32:55;;;;;;;38.78;20.20;;;;;;;9.41;100.00;102049.53;5049248;28;20029;-69
2022/10/31 05:35:23;;;;;;;35.72;20.17;;;;;;;9.35;100.00;102050.47;5048491;28;20078;-71
2022/10/31 05:37:48;;;;;;;34.13;19.67;;;;;;;9.31;100.00;102052.28;5047903;28;20048;-70
2022/10/31 05:40:16;;;;;;;32.80;18.48;;;;;;;9.28;100.00;102044.41;5047644;28;20499;-70
2022/10/31 05:42:42;;;;;;;37.33;20.65;;;;;;;9.29;100.00;102046.16;5030486;28;20534;-70
2022/10/31 05:45:09;;;;;;;40.05;21.73;;;;;;;9.28;100.00;102046.16;5047778;28;20075;-70
2022/10/31 05:47:34;;;;;;;35.95;21.45;;;;;;;9.24;100.00;102053.19;5030159;28;20028;-69
2022/10/31 05:50:00;;;;;;;40.53;20.60;;;;;;;9.21;100.00;102048.84;5031589;28;20017;-69
2022/10/31 05:52:25;;;;;;;31.40;19.05;;;;;;;9.18;100.00;102048.00;5048004;28;20040;-70
2022/10/31 05:54:50;;;;;;;39.85;21.13;;;;;;;9.19;100.00;102049.75;5030084;28;20529;-70
2022/10/31 05:57:16;;;;;;;40.00;21.33;;;;;;;9.17;100.00;102051.50;5047846;28;20155;-64
2022/10/31 05:59:41;;;;;;;36.50;20.50;;;;;;;9.16;100.00;102049.78;5048738;28;20376;-70
2022/10/31 06:02:06;;;;;;;42.92;22.55;;;;;;;9.15;100.00;102048.88;5047713;28;20044;-70
2022/10/31 06:04:32;;;;;;;46.83;24.40;;;;;;;9.15;100.00;102048.03;5049084;28;20112;-69
2022/10/31 06:06:57;;;;;;;37.53;20.50;;;;;;;9.14;100.00;102041.00;5047401;28;20133;-66
2022/10/31 06:09:23;;;;;;;36.40;19.77;;;;;;;9.12;100.00;102048.91;5048917;28;20478;-72
2022/10/31 06:11:48;;;;;;;44.35;21.17;;;;;;;9.14;100.00;102046.28;5045787;28;20478;-69
2022/10/31 06:14:13;;;;;;;45.40;22.95;;;;;;;9.14;100.00;102049.78;5048246;28;20075;-68
2022/10/31 06:16:39;;;;;;;44.67;23.45;;;;;;;9.19;100.00;102044.50;5047527;28;20048;-67
2022/10/31 06:19:04;;;;;;;49.33;24.38;;;;;;;9.26;100.00;102040.91;5047350;28;20061;-69
2022/10/31 06:21:29;;;;;;;44.75;23.95;;;;;;;9.28;100.00;102044.41;5046508;28;20733;-70
2022/10/31 06:23:55;;;;;;;46.10;23.63;;;;;;;9.25;100.00;102043.56;5047869;28;20013;-69
2022/10/31 06:26:20;;;;;;;47.58;22.63;;;;;;;9.21;100.00;102042.69;5046413;28;20025;-69
2022/10/31 06:28:45;;;;;;;42.88;21.95;;;;;;;9.17;100.00;102047.13;5047905;28;20067;-69
2022/10/31 06:31:11;;;;;;;36.30;20.13;;;;;;;9.18;100.00;102055.91;5047423;28;20121;-73
2022/10/31 06:33:36;;;;;;;58.50;26.58;;;;;;;9.28;100.00;102051.44;5048166;28;20159;-70
2022/10/31 06:36:02;;;;;;;49.50;24.65;;;;;;;9.31;100.00;102054.91;5048260;28;20017;-67
2022/10/31 06:38:27;;;;;;;56.30;26.05;;;;;;;9.39;100.00;102056.59;5047911;28;20031;-69
2022/10/31 06:40:53;;;;;;;58.30;27.85;;;;;;;9.46;100.00;102047.75;5028648;28;20096;-63
2022/10/31 06:43:19;;;;;;;61.60;27.13;;;;;;;9.46;100.00;102047.75;5045991;28;20075;-71
2022/10/31 06:45:45;;;;;;;65.97;27.58;;;;;;;9.43;100.00;102045.16;5045298;28;20021;-69
2022/10/31 06:48:10;;;;;;;57.55;25.52;;;;;;;9.41;100.00;102044.28;5045010;28;20032;-67
2022/10/31 06:50:35;;;;;;;61.95;28.13;;;;;;;9.40;100.00;102042.56;5011249;28;20032;-71
2022/10/31 06:53:01;;;;;;;62.05;27.25;;;;;;;9.43;100.00;102042.53;5045932;28;20057;-71
2022/10/31 06:55:26;;;;;;;68.85;29.15;;;;;;;9.47;100.00;102041.59;5044794;28;20046;-73
2022/10/31 06:57:57;;;;;;;98.72;33.28;;;;;;;9.58;100.00;102046.75;5046626;28;20033;-72
2022/10/31 07:00:23;;;;;;;70.35;28.92;;;;;;;9.64;100.00;102051.09;5046677;28;20155;-70
2022/10/31 07:03:03;;;;;;;92.65;32.45;;;;;;;9.72;100.00;102050.13;5046884;28;20021;-72
2022/10/31 07:05:29;;;;;;;89.10;33.70;;;;;;;9.81;100.00;102057.03;5047146;28;20380;-75
2022/10/31 07:07:56;;;;;;;87.63;33.50;;;;;;;9.88;100.00;102070.13;5046912;28;20075;-68
2022/10/31 07:10:23;;;;;;;95.72;38.47;;;;;;;9.94;100.00;102062.16;5027842;28;20027;-66
2022/10/31 07:12:48;;;;;;;114.70;40.75;;;;;;;10.00;100.00;102067.38;5045727;28;20170;-71
2022/10/31 07:15:14;;;;;;;106.40;40.00;;;;;;;10.07;100.00;102058.50;5046837;28;20104;-72
2022/10/31 07:17:39;;;;;;;105.57;38.90;;;;;;;10.14;100.00;102063.69;5028997;28;20025;-69
2022/10/31 07:20:05;;;;;;;95.47;34.92;;;;;;;10.19;100.00;102065.38;5046202;28;20052;-69
2022/10/31 07:22:37;;;;;;;89.35;34.28;;;;;;;10.29;100.00;102067.91;5028260;28;20040;-69
2022/10/31 07:25:03;;;;;;;93.55;36.50;;;;;;;10.36;100.00;102061.66;5025899;28;20059;-70
2022/10/31 07:27:28;;;;;;;91.95;36.72;;;;;;;10.40;100.00;102073.91;5045278;28;20053;-70
2022/10/31 07:29:53;;;;;;;97.28;37.58;;;;;;;10.48;100.00;102076.47;5027973;28;20025;-69
2022/10/31 07:32:19;;;;;;;88.18;35.97;;;;;;;10.58;100.00;102075.44;5045565;28;20021;-73
2022/10/31 07:34:44;;;;;;;93.28;35.22;;;;;;;10.66;100.00;102064.78;5045982;28;20479;-66
2022/10/31 07:37:09;;;;;;;78.40;34.50;;;;;;;10.76;100.00;102065.53;5046559;28;20044;-69
2022/10/31 07:39:35;;;;;;;81.05;35.10;;;;;;;10.78;100.00;102070.78;5046817;28;20032;-71
2022/10/31 07:42:00;;;;;;;78.78;35.05;;;;;;;10.76;100.00;102076.06;5047577;28;20043;-71
2022/10/31 07:44:25;;;;;;;80.45;32.05;;;;;;;10.78;100.00;102074.28;5046286;28;20025;-71
2022/10/31 07:46:51;;;;;;;83.15;35.10;;;;;;;10.78;100.00;102076.94;5046268;28;20036;-70
2022/10/31 07:49:16;;;;;;;83.55;33.72;;;;;;;10.86;100.00;102072.41;5045254;28;20056;-67
2022/10/31 07:51:41;;;;;;;78.97;34.10;;;;;;;10.88;100.00;102064.47;5045374;28;20032;-67
2022/10/31 07:54:06;;;;;;;81.80;34.80;;;;;;;10.89;100.00;102081.16;5045509;28;20411;-69
2022/10/31 07:56:32;;;;;;;90.32;36.35;;;;;;;10.83;100.00;102077.72;5045705;28;20499;-73
2022/10/31 07:58:57;;;;;;;86.80;35.33;;;;;;;10.85;100.00;102075.06;5045747;28;20502;-71
2022/10/31 08:01:23;;;;;;;88.80;35.17;;;;;;;10.90;100.00;102067.97;5045289;28;20474;-67
2022/10/31 08:03:48;;;;;;;77.93;33.63;;;;;;;10.85;100.00;102062.75;5043742;28;20474;-72
2022/10/31 08:06:13;;;;;;;95.75;36.05;;;;;;;10.77;100.00;102075.16;5042154;28;20045;-69
2022/10/31 08:08:39;;;;;;;87.35;34.47;;;;;;;10.81;100.00;102074.22;5007986;28;20082;-70
2022/10/31 08:11:04;;;;;;;86.82;36.40;;;;;;;10.82;100.00;102067.19;5044247;28;20060;-67
2022/10/31 08:13:29;;;;;;;77.88;32.88;;;;;;;10.91;100.00;102072.31;5045724;28;20120;-71
2022/10/31 08:15:55;;;;;;;81.07;32.40;;;;;;;10.96;100.00;102056.44;5044886;28;20013;-70
2022/10/31 08:18:23;;;;;;;72.40;30.35;;;;;;;10.96;100.00;102059.06;5027240;28;20059;-67
2022/10/31 08:20:49;;;;;;;72.82;31.63;;;;;;;10.87;100.00;102060.94;5045099;28;20636;-69
2022/10/31 08:23:14;;;;;;;61.90;31.25;;;;;;;10.93;100.00;102053.84;5045009;28;20025;-71
2022/10/31 08:25:39;;;;;;;76.18;32.80;;;;;;;10.94;100.00;102058.22;5044160;28;20124;-70
2022/10/31 08:28:06;;;;;;;93.95;38.60;;;;;;;10.91;100.00;102066.16;5044892;28;20013;-68
2022/10/31 08:30:33;;;;;;;105.75;40.53;;;;;;;10.98;100.00;102065.19;5028734;28;20075;-71
2022/10/31 08:33:01;;;;;;;104.32;43.25;;;;;;;11.04;100.00;102061.56;5048772;28;20053;-71
2022/10/31 08:35:26;;;;;;;109.65;41.47;;;;;;;11.14;100.00;102065.81;5048469;28;20025;-73
2022/10/31 08:37:54;;;;;;;100.72;41.78;;;;;;;11.21;100.00;102071.84;5048843;28;20042;-68
2022/10/31 08:40:19;;;;;;;104.50;41.17;;;;;;;11.31;100.00;102062.88;5018756;28;20032;-67
2022/10/31 08:42:44;;;;;;;102.63;40.25;;;;;;;11.40;100.00;102067.13;5043344;28;20060;-65
2022/10/31 08:45:10;;;;;;;94.47;38.58;;;;;;;11.49;100.00;102064.31;5030597;28;20033;-71
2022/10/31 08:47:35;;;;;;;85.38;38.60;;;;;;;11.55;100.00;102055.41;5049552;28;20021;-68
2022/10/31 08:50:00;;;;;;;76.20;34.92;;;;;;;11.66;100.00;102051.69;5049124;28;20472;-69
2022/10/31 08:52:26;;;;;;;81.25;34.83;;;;;;;11.64;100.00;102033.25;5053464;28;20033;-65
2022/10/31 08:54:51;;;;;;;79.35;34.70;;;;;;;11.78;100.00;102040.91;5049579;28;20028;-69
2022/10/31 08:57:16;;;;;;;70.43;32.47;;;;;;;11.87;100.00;102046.00;5049371;28;20021;-74
2022/10/31 08:59:42;;;;;;;71.35;33.63;;;;;;;11.97;100.00;102043.19;5049851;28;20075;-72
2022/10/31 09:02:07;;;;;;;63.47;32.28;;;;;;;12.01;100.00;102031.63;5048662;28;20029;-63
2022/10/31 09:04:32;;;;;;;67.78;33.40;;;;;;;12.20;100.00;102033.94;5049681;28;20028;-72
2022/10/31 09:06:58;;;;;;;57.50;29.33;;;;;;;12.36;100.00;102035.34;5048004;28;20060;-72
2022/10/31 09:09:23;;;;;;;55.75;29.17;;;;;;;12.45;100.00;102030.75;5046622;28;20025;-71
2022/10/31 09:11:48;;;;;;;57.25;28.55;;;;;;;12.53;100.00;102034.09;5029176;28;20441;-74
2022/10/31 09:14:14;;;;;;;49.22;26.10;;;;;;;12.52;100.00;102027.03;5047357;28;20095;-72
2022/10/31 09:16:39;;;;;;;47.17;26.75;;;;;;;12.74;100.00;102018.63;5046429;28;20507;-72
2022/10/31 09:19:04;;;;;;;49.38;25.48;;;;;;;12.85;100.00;102015.69;5047443;28;20482;-71
2022/10/31 09:21:30;;;;;;;51.03;25.35;;;;;;;12.96;100.00;102015.44;5047800;28;20571;-73
2022/10/31 09:23:55;;;;;;;46.05;23.88;;;;;;;13.18;100.00;102004.31;5045441;28;20537;-70
2022/10/31 09:26:21;;;;;;;40.92;24.13;;;;;;;13.14;100.00;102003.53;5046010;28;20032;-67
2022/10/31 09:28:46;;;;;;;40.72;22.38;;;;;;;13.33;100.00;102006.53;5047502;28;20053;-71
2022/10/31 09:31:12;;;;;;;34.83;21.38;;;;;;;13.45;100.00;102002.69;5028795;28;20029;-64
2022/10/31 09:33:37;;;;;;;36.95;20.85;;;;;;;13.43;100.00;101993.06;5046953;28;20044;-71
2022/10/31 09:36:02;;;;;;;34.00;20.95;;;;;;;13.51;100.00;101988.44;5046015;28;20086;-68
2022/10/31 09:38:28;;;;;;;32.35;19.55;;;;;;;13.55;100.00;101987.47;5045974;28;20112;-71
2022/10/31 09:41:03;;;;;;;38.53;21.08;;;;;;;13.61;100.00;101983.78;5044336;28;20499;-65
2022/10/31 09:43:54;;;;;;;34.13;19.48;;;;;;;13.63;100.00;101990.75;5044839;28;20033;-73
2022/10/31 09:46:29;;;;;;;35.90;20.67;;;;;;;13.70;100.00;101987.94;5046038;28;20122;-72
2022/10/31 09:48:55;;;;;;;33.92;19.15;;;;;;;13.88;100.00;101979.44;5028892;28;20025;-70
2022/10/31 09:51:24;;;;;;;34.08;19.67;;;;;;;13.97;100.00;101977.44;5046849;28;20544;-70
2022/10/31 09:53:51;;;;;;;;;;;;;;;14.17;100.00;101970.69;5013215;28;20467;-69
2022/10/31 09:56:21;;;;;;;31.25;18.45;;;;;;;14.12;100.00;101969.00;5046479;28;20008;-68
2022/10/31 09:58:58;;;;;;;35.55;18.95;;;;;;;14.25;100.00;101976.59;5044754;28;20483;-65
2022/10/31 10:01:30;;;;;;;32.97;19.73;;;;;;;14.33;100.00;101966.59;5046462;28;20029;-67
2022/10/31 10:04:00;;;;;;;34.60;18.92;;;;;;;14.51;100.00;101973.09;5028618;28;20025;-66
2022/10/31 10:06:29;;;;;;;25.83;16.92;;;;;;;14.69;100.00;101970.75;4990030;28;1089685;-70
2022/10/31 10:08:55;;;;;;;27.13;17.40;;;;;;;14.54;100.00;101966.81;5029145;28;20037;-70
2022/10/31 10:11:38;;;;;;;35.38;18.55;;;;;;;14.52;100.00;101969.56;5046616;28;20916;-70
2022/10/31 10:14:29;;;;;;;40.25;19.42;;;;;;;14.59;100.00;101961.38;5047760;28;20438;-70
2022/10/31 10:17:18;;;;;;;32.85;17.88;;;;;;;14.76;100.00;101953.75;5028356;28;20033;-70
2022/10/31 10:19:56;;;;;;;34.80;19.27;;;;;;;14.72;100.00;101952.09;5008282;28;20562;-71
2022/10/31 10:22:46;;;;;;;30.43;18.07;;;;;;;14.63;100.00;101947.97;5042017;28;20388;-67
2022/10/31 10:25:25;;;;;;;33.33;18.20;;;;;;;14.70;100.00;101946.00;5022884;28;20276;-65
2022/10/31 10:28:22;;;;;;;28.20;16.48;;;;;;;14.73;100.00;101929.09;5029225;28;20156;-68
2022/10/31 10:30:51;;;;;;;28.52;16.23;;;;;;;14.73;100.00;101929.09;5043092;28;20036;-66
2022/10/31 10:33:21;;;;;;;28.73;16.02;;;;;;;14.81;100.00;101927.06;5026282;28;20079;-71
2022/10/31 10:35:55;;;;;;;27.15;16.58;;;;;;;14.87;100.00;101932.16;5008508;28;20529;-69
2022/10/31 10:38:44;;;;;;;31.40;16.27;;;;;;;14.97;100.00;101927.41;5008853;28;20064;-68
2022/10/31 10:41:14;;;;;;;27.48;16.23;;;;;;;15.16;100.00;101924.97;5006927;28;20104;-68
2022/10/31 10:43:39;;;;;;;27.13;16.08;;;;;;;15.35;100.00;101911.00;5008447;28;20420;-71
2022/10/31 10:49:15;;;;;;;25.95;16.60;;;;;;;15.91;100.00;101897.41;5025576;28;20107;-68
2022/10/31 10:51:52;;;;;;;29.30;17.10;;;;;;;15.91;100.00;101898.28;5008148;28;20472;-69
2022/10/31 10:54:44;;;;;;;30.33;16.92;;;;;;;16.00;100.00;101890.88;5007563;28;20028;-69
2022/10/31 10:57:40;;;;;;;28.73;16.58;;;;;;;15.87;100.00;101896.66;5025740;28;20044;-70
2022/10/31 11:00:21;;;;;;;28.08;16.38;;;;;;;15.95;100.00;101899.00;5026112;28;20124;-68
2022/10/31 11:02:47;;;;;;;30.88;16.25;;;;;;;15.92;100.00;101894.69;5026935;28;20041;-70
2022/10/31 11:05:39;;;;;;;27.05;15.55;;;;;;;16.10;100.00;101880.75;5026761;28;20083;-71
2022/10/31 11:08:06;;;;;;;27.75;16.48;;;;;;;16.15;100.00;101876.97;5006071;28;20499;-66
2022/10/31 11:10:32;;;;;;;23.40;15.93;;;;;;;16.05;100.00;101878.28;5025610;28;20506;-71
2022/10/31 11:13:20;;;;;;;28.05;15.13;;;;;;;16.10;100.00;101878.94;5045008;28;20511;-66
2022/10/31 11:15:51;;;;;;;25.60;15.27;;;;;;;16.31;100.00;101880.81;5028354;28;20025;-70
2022/10/31 11:18:21;;;;;;;27.05;14.20;;;;;;;16.59;100.00;101888.47;5045523;28;20025;-67